sensor_id;sensor_type;location;lat;lon;timestamp;temperature;humidity
3794;DHT22;1912;51.358;12.282;2024-02-16T04:50:43;9.80;1.00
3794;DHT22;1912;51.358;12.282;2024-02-16T04:53:09;9.80;1.00
3794;DHT22;1912;51.358;12.282;2024-02-16T04:55:35;9.80;1.00
3794;DHT22;1912;51.358;12.282;2024-02-16T04:58:00;9.80;1.00
3794;DHT22;1912;51.358;12.282;2024-02-16T05:00:26;9.80;1.00
3794;DHT22;1912;51.358;12.282;2024-02-16T05:02:52;9.80;1.00
3794;DHT22;1912;51.358;12.282;2024-02-16T05:05:18;9.80;1.00
3794;DHT22;1912;51.358;12.282;2024-02-16T05:07:48;9.80;1.00
3794;DHT22;1912;51.358;12.282;2024-02-16T05:10:15;9.80;1.00
3794;DHT22;1912;51.358;12.282;2024-02-16T05:12:40;9.90;1.00
3794;DHT22;1912;51.358;12.282;2024-02-16T05:15:07;9.90;1.00
3794;DHT22;1912;51.358;12.282;2024-02-16T05:17:33;9.90;1.00
3794;DHT22;1912;51.358;12.282;2024-02-16T05:19:58;9.90;1.00
3794;DHT22;1912;51.358;12.282;2024-02-16T05:22:24;9.90;1.00
3794;DHT22;1912;51.358;12.282;2024-02-16T05:24:50;9.90;1.00
3794;DHT22;1912;51.358;12.282;2024-02-16T05:27:15;9.90;1.00
3794;DHT22;1912;51.358;12.282;2024-02-16T05:29:41;9.90;1.00
3794;DHT22;1912;51.358;12.282;2024-02-16T05:32:07;9.90;1.00
3794;DHT22;1912;51.358;12.282;2024-02-16T05:34:33;9.90;1.00
3794;DHT22;1912;51.358;12.282;2024-02-16T05:37:06;9.90;1.00
3794;DHT22;1912;51.358;12.282;2024-02-16T05:39:36;9.90;1.00
3794;DHT22;1912;51.358;12.282;2024-02-16T05:42:18;9.90;1.00
3794;DHT22;1912;51.358;12.282;2024-02-16T05:44:45;9.90;1.00
3794;DHT22;1912;51.358;12.282;2024-02-16T05:47:10;9.90;1.00
3794;DHT22;1912;51.358;12.282;2024-02-16T05:49:36;9.90;1.00
3794;DHT22;1912;51.358;12.282;2024-02-16T05:52:03;9.90;1.00
3794;DHT22;1912;51.358;12.282;2024-02-16T05:54:47;9.90;1.00
3794;DHT22;1912;51.358;12.282;2024-02-16T05:57:14;9.90;1.00
3794;DHT22;1912;51.358;12.282;2024-02-16T05:59:41;9.90;1.00
3794;DHT22;1912;51.358;12.282;2024-02-16T06:02:07;9.90;1.00
3794;DHT22;1912;51.358;12.282;2024-02-16T06:04:33;9.90;1.00
3794;DHT22;1912;51.358;12.282;2024-02-16T06:06:59;9.90;1.00
3794;DHT22;1912;51.358;12.282;2024-02-16T06:09:25;9.90;1.00
3794;DHT22;1912;51.358;12.282;2024-02-16T06:11:51;9.90;1.00
3794;DHT22;1912;51.358;12.282;2024-02-16T06:14:17;10.00;1.00
3794;DHT22;1912;51.358;12.282;2024-02-16T06:16:43;10.00;1.00
3794;DHT22;1912;51.358;12.282;2024-02-16T06:19:08;10.00;1.00
3794;DHT22;1912;51.358;12.282;2024-02-16T06:21:35;10.00;1.00
3794;DHT22;1912;51.358;12.282;2024-02-16T06:24:01;10.00;1.00
3794;DHT22;1912;51.358;12.282;2024-02-16T06:26:27;10.00;1.00
3794;DHT22;1912;51.358;12.282;2024-02-16T06:28:52;10.10;1.00
3794;DHT22;1912;51.358;12.282;2024-02-16T06:31:18;10.10;1.00
3794;DHT22;1912;51.358;12.282;2024-02-16T06:33:43;10.10;1.00
3794;DHT22;1912;51.358;12.282;2024-02-16T06:36:09;10.00;1.00
3794;DHT22;1912;51.358;12.282;2024-02-16T06:38:36;10.10;1.00
3794;DHT22;1912;51.358;12.282;2024-02-16T06:41:02;10.10;1.00
3794;DHT22;1912;51.358;12.282;2024-02-16T06:43:29;10.10;1.00
3794;DHT22;1912;51.358;12.282;2024-02-16T06:45:55;10.10;1.00
3794;DHT22;1912;51.358;12.282;2024-02-16T06:48:22;10.20;1.00
3794;DHT22;1912;51.358;12.282;2024-02-16T06:50:48;10.20;1.00
3794;DHT22;1912;51.358;12.282;2024-02-16T06:53:14;10.20;1.00
3794;DHT22;1912;51.358;12.282;2024-02-16T06:55:40;10.20;1.00
3794;DHT22;1912;51.358;12.282;2024-02-16T06:58:05;10.20;1.00
3794;DHT22;1912;51.358;12.282;2024-02-16T07:00:31;10.20;1.00
3794;DHT22;1912;51.358;12.282;2024-02-16T07:02:57;10.20;1.00
3794;DHT22;1912;51.358;12.282;2024-02-16T07:05:22;10.30;1.00
3794;DHT22;1912;51.358;12.282;2024-02-16T07:07:48;10.30;1.00
3794;DHT22;1912;51.358;12.282;2024-02-16T07:10:15;10.30;1.00
3794;DHT22;1912;51.358;12.282;2024-02-16T07:12:41;10.30;1.00
3794;DHT22;1912;51.358;12.282;2024-02-16T07:15:07;10.30;1.00
3794;DHT22;1912;51.358;12.282;2024-02-16T07:17:34;10.30;1.00
3794;DHT22;1912;51.358;12.282;2024-02-16T07:20:00;10.30;1.00
3794;DHT22;1912;51.358;12.282;2024-02-16T07:22:29;10.40;1.00
3794;DHT22;1912;51.358;12.282;2024-02-16T07:24:55;10.40;1.00
3794;DHT22;1912;51.358;12.282;2024-02-16T07:27:21;10.50;1.00
3794;DHT22;1912;51.358;12.282;2024-02-16T07:29:47;10.50;1.00
3794;DHT22;1912;51.358;12.282;2024-02-16T07:32:12;10.60;1.00
3794;DHT22;1912;51.358;12.282;2024-02-16T07:34:38;10.60;1.00
3794;DHT22;1912;51.358;12.282;2024-02-16T07:37:04;10.60;1.00
3794;DHT22;1912;51.358;12.282;2024-02-16T07:39:30;10.70;1.00
3794;DHT22;1912;51.358;12.282;2024-02-16T07:41:56;10.70;1.00
3794;DHT22;1912;51.358;12.282;2024-02-16T07:44:21;10.80;1.00
3794;DHT22;1912;51.358;12.282;2024-02-16T07:46:47;10.80;1.00
3794;DHT22;1912;51.358;12.282;2024-02-16T07:49:15;10.80;1.00
3794;DHT22;1912;51.358;12.282;2024-02-16T07:51:40;10.90;1.00
3794;DHT22;1912;51.358;12.282;2024-02-16T07:54:07;10.90;1.00
3794;DHT22;1912;51.358;12.282;2024-02-16T07:56:33;10.90;1.00
3794;DHT22;1912;51.358;12.282;2024-02-16T07:58:59;10.90;1.00
3794;DHT22;1912;51.358;12.282;2024-02-16T08:01:25;11.00;1.00
3794;DHT22;1912;51.358;12.282;2024-02-16T08:03:51;11.00;1.00
3794;DHT22;1912;51.358;12.282;2024-02-16T08:06:18;11.00;1.00
3794;DHT22;1912;51.358;12.282;2024-02-16T08:08:47;11.10;1.00
3794;DHT22;1912;51.358;12.282;2024-02-16T08:11:12;11.30;1.00
3794;DHT22;1912;51.358;12.282;2024-02-16T08:13:38;11.60;1.00
3794;DHT22;1912;51.358;12.282;2024-02-16T08:16:04;11.80;1.00
3794;DHT22;1912;51.358;12.282;2024-02-16T08:18:32;12.10;1.00
3794;DHT22;1912;51.358;12.282;2024-02-16T08:20:59;12.40;1.00
3794;DHT22;1912;51.358;12.282;2024-02-16T08:23:25;12.70;1.00
3794;DHT22;1912;51.358;12.282;2024-02-16T08:25:50;13.00;1.00
3794;DHT22;1912;51.358;12.282;2024-02-16T08:28:16;13.30;1.00
3794;DHT22;1912;51.358;12.282;2024-02-16T08:30:41;13.60;1.00
3794;DHT22;1912;51.358;12.282;2024-02-16T08:33:09;13.80;1.00
3794;DHT22;1912;51.358;12.282;2024-02-16T08:35:35;14.00;1.00
3794;DHT22;1912;51.358;12.282;2024-02-16T08:38:03;14.10;1.00
3794;DHT22;1912;51.358;12.282;2024-02-16T08:40:29;14.20;1.00
3794;DHT22;1912;51.358;12.282;2024-02-16T08:42:54;14.20;1.00
3794;DHT22;1912;51.358;12.282;2024-02-16T08:45:20;14.20;1.00
3794;DHT22;1912;51.358;12.282;2024-02-16T08:47:45;13.90;1.00
3794;DHT22;1912;51.358;12.282;2024-02-16T08:50:11;13.80;1.00
3794;DHT22;1912;51.358;12.282;2024-02-16T08:52:37;13.60;1.00
3794;DHT22;1912;51.358;12.282;2024-02-16T08:55:03;13.60;1.00
3794;DHT22;1912;51.358;12.282;2024-02-16T08:57:31;13.50;1.00
3794;DHT22;1912;51.358;12.282;2024-02-16T08:59:57;13.60;1.00
3794;DHT22;1912;51.358;12.282;2024-02-16T09:02:22;13.70;1.00
3794;DHT22;1912;51.358;12.282;2024-02-16T09:04:48;13.70;1.00
3794;DHT22;1912;51.358;12.282;2024-02-16T09:07:14;14.10;1.00
3794;DHT22;1912;51.358;12.282;2024-02-16T09:09:39;13.90;1.00
3794;DHT22;1912;51.358;12.282;2024-02-16T09:12:05;13.90;1.00
3794;DHT22;1912;51.358;12.282;2024-02-16T09:14:31;13.70;1.00
3794;DHT22;1912;51.358;12.282;2024-02-16T09:16:57;13.60;1.00
3794;DHT22;1912;51.358;12.282;2024-02-16T09:19:23;13.60;1.00
3794;DHT22;1912;51.358;12.282;2024-02-16T09:21:49;13.60;1.00
3794;DHT22;1912;51.358;12.282;2024-02-16T09:24:16;13.60;1.00
3794;DHT22;1912;51.358;12.282;2024-02-16T09:26:46;13.60;1.00
3794;DHT22;1912;51.358;12.282;2024-02-16T09:29:15;13.60;1.00
3794;DHT22;1912;51.358;12.282;2024-02-16T09:31:41;13.60;1.00
3794;DHT22;1912;51.358;12.282;2024-02-16T09:34:07;13.60;1.00
3794;DHT22;1912;51.358;12.282;2024-02-16T09:36:32;13.50;1.00
3794;DHT22;1912;51.358;12.282;2024-02-16T09:38:58;13.60;1.00
3794;DHT22;1912;51.358;12.282;2024-02-16T09:41:24;13.60;1.00
3794;DHT22;1912;51.358;12.282;2024-02-16T09:43:49;13.60;1.00
3794;DHT22;1912;51.358;12.282;2024-02-16T09:46:19;13.70;1.00
3794;DHT22;1912;51.358;12.282;2024-02-16T09:48:47;13.80;1.00
3794;DHT22;1912;51.358;12.282;2024-02-16T09:51:17;14.20;1.00
3794;DHT22;1912;51.358;12.282;2024-02-16T09:53:44;14.70;1.00
3794;DHT22;1912;51.358;12.282;2024-02-16T09:56:17;14.80;1.00
3794;DHT22;1912;51.358;12.282;2024-02-16T09:58:43;14.90;1.00
3794;DHT22;1912;51.358;12.282;2024-02-16T10:01:23;14.90;1.00
3794;DHT22;1912;51.358;12.282;2024-02-16T10:03:49;14.70;1.00
3794;DHT22;1912;51.358;12.282;2024-02-16T10:06:16;14.70;1.00
3794;DHT22;1912;51.358;12.282;2024-02-16T10:08:50;14.60;1.00
3794;DHT22;1912;51.358;12.282;2024-02-16T10:11:17;14.80;1.00
3794;DHT22;1912;51.358;12.282;2024-02-16T10:16:22;15.10;1.00
3794;DHT22;1912;51.358;12.282;2024-02-16T10:18:47;15.30;1.00
3794;DHT22;1912;51.358;12.282;2024-02-16T10:21:13;15.20;1.00
3794;DHT22;1912;51.358;12.282;2024-02-16T10:23:39;15.30;1.00
3794;DHT22;1912;51.358;12.282;2024-02-16T10:26:04;15.10;1.00
3794;DHT22;1912;51.358;12.282;2024-02-16T10:28:30;15.10;1.00
3794;DHT22;1912;51.358;12.282;2024-02-16T10:30:58;14.90;1.00
3794;DHT22;1912;51.358;12.282;2024-02-16T10:33:28;14.90;1.00
3794;DHT22;1912;51.358;12.282;2024-02-16T10:35:56;14.90;1.00
3794;DHT22;1912;51.358;12.282;2024-02-16T10:38:25;14.90;1.00
3794;DHT22;1912;51.358;12.282;2024-02-16T10:40:56;14.90;1.00
3794;DHT22;1912;51.358;12.282;2024-02-16T10:43:24;14.80;1.00
3794;DHT22;1912;51.358;12.282;2024-02-16T10:45:51;14.90;1.00
3794;DHT22;1912;51.358;12.282;2024-02-16T10:48:18;14.90;1.00
3794;DHT22;1912;51.358;12.282;2024-02-16T10:50:44;14.90;1.00
3794;DHT22;1912;51.358;12.282;2024-02-16T10:53:22;14.90;1.00
3794;DHT22;1912;51.358;12.282;2024-02-16T10:55:50;14.90;1.00
3794;DHT22;1912;51.358;12.282;2024-02-16T10:58:17;14.90;1.00
3794;DHT22;1912;51.358;12.282;2024-02-16T11:00:54;14.80;1.00
3794;DHT22;1912;51.358;12.282;2024-02-16T11:03:24;14.60;1.00
3794;DHT22;1912;51.358;12.282;2024-02-16T11:05:51;14.60;1.00
3794;DHT22;1912;51.358;12.282;2024-02-16T11:08:19;14.60;1.00
3794;DHT22;1912;51.358;12.282;2024-02-16T11:11:00;14.60;1.00
3794;DHT22;1912;51.358;12.282;2024-02-16T11:13:33;14.60;1.00
3794;DHT22;1912;51.358;12.282;2024-02-16T11:16:06;14.60;1.00
3794;DHT22;1912;51.358;12.282;2024-02-16T11:18:37;14.50;1.00
3794;DHT22;1912;51.358;12.282;2024-02-16T11:21:05;14.60;1.00
3794;DHT22;1912;51.358;12.282;2024-02-16T11:23:34;14.50;1.00
3794;DHT22;1912;51.358;12.282;2024-02-16T11:26:02;14.50;1.00
3794;DHT22;1912;51.358;12.282;2024-02-16T11:28:31;14.50;1.00
3794;DHT22;1912;51.358;12.282;2024-02-16T11:30:58;14.50;1.00
3794;DHT22;1912;51.358;12.282;2024-02-16T11:33:23;14.60;1.00
3794;DHT22;1912;51.358;12.282;2024-02-16T11:35:57;14.60;1.00
3794;DHT22;1912;51.358;12.282;2024-02-16T11:38:24;14.60;1.00
3794;DHT22;1912;51.358;12.282;2024-02-16T11:40:55;14.70;1.00
3794;DHT22;1912;51.358;12.282;2024-02-16T11:43:22;14.70;1.00
3794;DHT22;1912;51.358;12.282;2024-02-16T11:45:48;14.80;1.00
3794;DHT22;1912;51.358;12.282;2024-02-16T11:48:22;14.80;1.00
3794;DHT22;1912;51.358;12.282;2024-02-16T11:50:57;14.90;1.00
3794;DHT22;1912;51.358;12.282;2024-02-16T11:53:31;15.00;1.00
3794;DHT22;1912;51.358;12.282;2024-02-16T11:55:57;15.00;1.00
3794;DHT22;1912;51.358;12.282;2024-02-16T11:58:23;15.20;1.00
3794;DHT22;1912;51.358;12.282;2024-02-16T12:00:50;15.30;1.00
3794;DHT22;1912;51.358;12.282;2024-02-16T12:03:25;15.50;1.00
3794;DHT22;1912;51.358;12.282;2024-02-16T12:05:57;15.50;1.00
3794;DHT22;1912;51.358;12.282;2024-02-16T12:08:24;15.60;1.00
3794;DHT22;1912;51.358;12.282;2024-02-16T12:10:56;15.80;1.00
3794;DHT22;1912;51.358;12.282;2024-02-16T12:13:22;15.80;1.00
3794;DHT22;1912;51.358;12.282;2024-02-16T12:15:49;15.90;1.00
3794;DHT22;1912;51.358;12.282;2024-02-16T12:18:27;15.90;1.00
3794;DHT22;1912;51.358;12.282;2024-02-16T12:21:00;16.00;1.00
3794;DHT22;1912;51.358;12.282;2024-02-16T12:23:31;16.00;1.00
3794;DHT22;1912;51.358;12.282;2024-02-16T12:25:58;16.00;1.00
3794;DHT22;1912;51.358;12.282;2024-02-16T12:28:26;16.20;1.00
3794;DHT22;1912;51.358;12.282;2024-02-16T12:30:54;16.50;1.00
3794;DHT22;1912;51.358;12.282;2024-02-16T12:33:23;16.60;1.00
3794;DHT22;1912;51.358;12.282;2024-02-16T12:35:50;16.60;1.00
3794;DHT22;1912;51.358;12.282;2024-02-16T12:38:16;16.80;1.00
3794;DHT22;1912;51.358;12.282;2024-02-16T12:40:43;17.10;1.00
3794;DHT22;1912;51.358;12.282;2024-02-16T12:43:09;17.20;1.00
3794;DHT22;1912;51.358;12.282;2024-02-16T12:45:36;17.10;1.00
3794;DHT22;1912;51.358;12.282;2024-02-16T12:48:03;17.10;1.00
3794;DHT22;1912;51.358;12.282;2024-02-16T12:50:30;17.00;1.00
3794;DHT22;1912;51.358;12.282;2024-02-16T12:52:56;17.00;1.00
3794;DHT22;1912;51.358;12.282;2024-02-16T12:55:22;16.80;1.00
3794;DHT22;1912;51.358;12.282;2024-02-16T12:57:49;16.80;1.00
3794;DHT22;1912;51.358;12.282;2024-02-16T13:00:16;16.70;1.00
3794;DHT22;1912;51.358;12.282;2024-02-16T13:02:42;16.80;1.00
3794;DHT22;1912;51.358;12.282;2024-02-16T13:05:08;16.70;1.00
3794;DHT22;1912;51.358;12.282;2024-02-16T13:07:34;16.70;1.00
3794;DHT22;1912;51.358;12.282;2024-02-16T13:09:59;16.60;1.00
3794;DHT22;1912;51.358;12.282;2024-02-16T13:12:25;16.60;1.00
3794;DHT22;1912;51.358;12.282;2024-02-16T13:14:51;16.60;1.00
3794;DHT22;1912;51.358;12.282;2024-02-16T13:17:16;16.60;1.00
3794;DHT22;1912;51.358;12.282;2024-02-16T13:19:42;16.60;1.00
3794;DHT22;1912;51.358;12.282;2024-02-16T13:22:08;16.60;1.00
3794;DHT22;1912;51.358;12.282;2024-02-16T13:24:34;16.60;1.00
3794;DHT22;1912;51.358;12.282;2024-02-16T13:27:00;16.60;1.00
3794;DHT22;1912;51.358;12.282;2024-02-16T13:29:26;16.50;1.00
3794;DHT22;1912;51.358;12.282;2024-02-16T13:31:52;16.50;1.00
3794;DHT22;1912;51.358;12.282;2024-02-16T13:34:17;16.50;1.00
3794;DHT22;1912;51.358;12.282;2024-02-16T13:36:43;16.50;1.00
3794;DHT22;1912;51.358;12.282;2024-02-16T13:39:09;16.50;1.00
3794;DHT22;1912;51.358;12.282;2024-02-16T13:41:35;16.50;1.00
3794;DHT22;1912;51.358;12.282;2024-02-16T13:44:01;16.50;1.00
3794;DHT22;1912;51.358;12.282;2024-02-16T13:46:26;16.50;1.00
3794;DHT22;1912;51.358;12.282;2024-02-16T13:48:52;16.50;1.00
3794;DHT22;1912;51.358;12.282;2024-02-16T13:51:18;16.50;1.00
3794;DHT22;1912;51.358;12.282;2024-02-16T13:53:45;16.50;1.00
3794;DHT22;1912;51.358;12.282;2024-02-16T13:56:11;16.50;1.00
3794;DHT22;1912;51.358;12.282;2024-02-16T13:58:36;16.50;1.00
3794;DHT22;1912;51.358;12.282;2024-02-16T14:01:04;16.50;1.00
3794;DHT22;1912;51.358;12.282;2024-02-16T14:03:30;16.50;1.00
3794;DHT22;1912;51.358;12.282;2024-02-16T14:05:57;16.60;1.00
3794;DHT22;1912;51.358;12.282;2024-02-16T14:08:24;16.70;1.00
3794;DHT22;1912;51.358;12.282;2024-02-16T14:10:49;16.70;1.00
3794;DHT22;1912;51.358;12.282;2024-02-16T14:13:15;16.60;1.00
3794;DHT22;1912;51.358;12.282;2024-02-16T14:15:41;16.60;1.00
3794;DHT22;1912;51.358;12.282;2024-02-16T14:18:08;16.50;1.00
3794;DHT22;1912;51.358;12.282;2024-02-16T14:20:34;16.40;1.00
3794;DHT22;1912;51.358;12.282;2024-02-16T14:23:00;16.40;1.00
3794;DHT22;1912;51.358;12.282;2024-02-16T14:25:28;16.40;1.00
3794;DHT22;1912;51.358;12.282;2024-02-16T14:27:54;16.50;1.00
3794;DHT22;1912;51.358;12.282;2024-02-16T14:30:20;16.50;1.00
3794;DHT22;1912;51.358;12.282;2024-02-16T14:32:46;16.50;1.00
3794;DHT22;1912;51.358;12.282;2024-02-16T14:35:12;16.60;1.00
3794;DHT22;1912;51.358;12.282;2024-02-16T14:37:37;16.70;1.00
3794;DHT22;1912;51.358;12.282;2024-02-16T14:40:04;16.70;1.00
3794;DHT22;1912;51.358;12.282;2024-02-16T14:42:35;16.60;1.00
3794;DHT22;1912;51.358;12.282;2024-02-16T14:45:01;16.60;1.00
3794;DHT22;1912;51.358;12.282;2024-02-16T14:47:28;16.60;1.00
3794;DHT22;1912;51.358;12.282;2024-02-16T14:49:53;16.60;1.00
3794;DHT22;1912;51.358;12.282;2024-02-16T14:52:19;16.60;1.00
3794;DHT22;1912;51.358;12.282;2024-02-16T14:54:45;16.50;1.00
3794;DHT22;1912;51.358;12.282;2024-02-16T14:57:11;16.50;1.00
3794;DHT22;1912;51.358;12.282;2024-02-16T14:59:37;16.50;1.00
3794;DHT22;1912;51.358;12.282;2024-02-16T15:02:02;16.60;1.00
3794;DHT22;1912;51.358;12.282;2024-02-16T15:04:28;16.60;1.00
3794;DHT22;1912;51.358;12.282;2024-02-16T15:06:56;16.50;1.00
3794;DHT22;1912;51.358;12.282;2024-02-16T15:09:21;16.50;1.00
3794;DHT22;1912;51.358;12.282;2024-02-16T15:11:47;16.50;1.00
3794;DHT22;1912;51.358;12.282;2024-02-16T15:14:13;16.40;1.00
3794;DHT22;1912;51.358;12.282;2024-02-16T15:16:38;16.40;1.00
3794;DHT22;1912;51.358;12.282;2024-02-16T15:19:04;16.40;1.00
3794;DHT22;1912;51.358;12.282;2024-02-16T15:21:30;16.40;1.00
3794;DHT22;1912;51.358;12.282;2024-02-16T15:23:55;16.30;1.00
3794;DHT22;1912;51.358;12.282;2024-02-16T15:26:21;16.30;1.00
3794;DHT22;1912;51.358;12.282;2024-02-16T15:28:47;16.20;1.00
3794;DHT22;1912;51.358;12.282;2024-02-16T15:31:13;16.20;1.00
3794;DHT22;1912;51.358;12.282;2024-02-16T15:33:39;16.10;1.00
3794;DHT22;1912;51.358;12.282;2024-02-16T15:36:05;16.10;1.00
3794;DHT22;1912;51.358;12.282;2024-02-16T15:38:30;16.10;1.00
3794;DHT22;1912;51.358;12.282;2024-02-16T15:40:56;16.10;1.00
3794;DHT22;1912;51.358;12.282;2024-02-16T15:43:22;16.10;1.00
3794;DHT22;1912;51.358;12.282;2024-02-16T15:45:47;16.00;1.00
3794;DHT22;1912;51.358;12.282;2024-02-16T15:48:15;16.00;1.00
3794;DHT22;1912;51.358;12.282;2024-02-16T15:50:41;15.90;1.00
3794;DHT22;1912;51.358;12.282;2024-02-16T15:53:07;15.90;1.00
3794;DHT22;1912;51.358;12.282;2024-02-16T15:55:33;15.80;1.00
3794;DHT22;1912;51.358;12.282;2024-02-16T15:57:59;15.80;1.00
3794;DHT22;1912;51.358;12.282;2024-02-16T16:00:25;15.80;1.00
3794;DHT22;1912;51.358;12.282;2024-02-16T16:02:52;15.70;1.00
3794;DHT22;1912;51.358;12.282;2024-02-16T16:05:17;15.70;1.00
3794;DHT22;1912;51.358;12.282;2024-02-16T16:07:43;15.70;1.00
3794;DHT22;1912;51.358;12.282;2024-02-16T16:10:09;15.70;1.00
3794;DHT22;1912;51.358;12.282;2024-02-16T16:12:36;15.60;1.00
3794;DHT22;1912;51.358;12.282;2024-02-16T16:15:02;15.60;1.00
3794;DHT22;1912;51.358;12.282;2024-02-16T16:17:28;15.50;1.00
3794;DHT22;1912;51.358;12.282;2024-02-16T16:19:54;15.50;1.00
3794;DHT22;1912;51.358;12.282;2024-02-16T16:22:20;15.50;1.00
3794;DHT22;1912;51.358;12.282;2024-02-16T16:24:46;15.50;1.00
3794;DHT22;1912;51.358;12.282;2024-02-16T16:27:12;15.50;1.00
3794;DHT22;1912;51.358;12.282;2024-02-16T16:29:38;15.50;1.00
3794;DHT22;1912;51.358;12.282;2024-02-16T16:32:07;15.40;1.00
3794;DHT22;1912;51.358;12.282;2024-02-16T16:34:34;15.40;1.00
3794;DHT22;1912;51.358;12.282;2024-02-16T16:36:59;15.30;1.00
3794;DHT22;1912;51.358;12.282;2024-02-16T16:39:25;15.20;1.00
3794;DHT22;1912;51.358;12.282;2024-02-16T16:41:51;15.10;1.00
3794;DHT22;1912;51.358;12.282;2024-02-16T16:44:17;15.00;1.00
3794;DHT22;1912;51.358;12.282;2024-02-16T16:46:47;14.90;1.00
3794;DHT22;1912;51.358;12.282;2024-02-16T16:49:13;14.80;1.00
3794;DHT22;1912;51.358;12.282;2024-02-16T16:51:39;14.70;1.00
3794;DHT22;1912;51.358;12.282;2024-02-16T16:54:04;14.60;1.00
3794;DHT22;1912;51.358;12.282;2024-02-16T16:56:30;14.60;1.00
3794;DHT22;1912;51.358;12.282;2024-02-16T16:58:56;14.50;1.00
3794;DHT22;1912;51.358;12.282;2024-02-16T17:01:22;14.40;1.00
3794;DHT22;1912;51.358;12.282;2024-02-16T17:03:48;14.40;1.00
3794;DHT22;1912;51.358;12.282;2024-02-16T17:06:13;14.30;1.00
3794;DHT22;1912;51.358;12.282;2024-02-16T17:08:39;14.30;1.00
3794;DHT22;1912;51.358;12.282;2024-02-16T17:11:05;14.40;1.00
3794;DHT22;1912;51.358;12.282;2024-02-16T17:13:32;14.40;1.00
3794;DHT22;1912;51.358;12.282;2024-02-16T17:15:59;14.30;1.00
3794;DHT22;1912;51.358;12.282;2024-02-16T17:18:26;14.30;1.00
3794;DHT22;1912;51.358;12.282;2024-02-16T17:20:54;14.30;1.00
3794;DHT22;1912;51.358;12.282;2024-02-16T17:23:20;14.30;1.00
3794;DHT22;1912;51.358;12.282;2024-02-16T17:25:45;14.30;1.00
3794;DHT22;1912;51.358;12.282;2024-02-16T17:28:11;14.30;1.00
3794;DHT22;1912;51.358;12.282;2024-02-16T17:30:38;14.30;1.00
3794;DHT22;1912;51.358;12.282;2024-02-16T17:33:06;14.20;1.00
3794;DHT22;1912;51.358;12.282;2024-02-16T17:35:31;14.10;1.00
3794;DHT22;1912;51.358;12.282;2024-02-16T17:37:57;14.10;1.00
3794;DHT22;1912;51.358;12.282;2024-02-16T17:40:23;14.10;1.00
3794;DHT22;1912;51.358;12.282;2024-02-16T17:42:48;14.00;1.00
3794;DHT22;1912;51.358;12.282;2024-02-16T17:45:14;14.00;1.00
3794;DHT22;1912;51.358;12.282;2024-02-16T17:47:40;14.00;1.00
3794;DHT22;1912;51.358;12.282;2024-02-16T17:50:06;13.90;1.00
3794;DHT22;1912;51.358;12.282;2024-02-16T17:52:32;13.90;1.00
3794;DHT22;1912;51.358;12.282;2024-02-16T17:54:58;13.90;1.00
3794;DHT22;1912;51.358;12.282;2024-02-16T17:57:27;13.90;1.00
3794;DHT22;1912;51.358;12.282;2024-02-16T17:59:52;13.90;1.00
3794;DHT22;1912;51.358;12.282;2024-02-16T18:02:19;13.90;1.00
3794;DHT22;1912;51.358;12.282;2024-02-16T18:04:45;13.90;1.00
3794;DHT22;1912;51.358;12.282;2024-02-16T18:07:11;13.80;1.00
3794;DHT22;1912;51.358;12.282;2024-02-16T18:09:46;13.80;1.00
3794;DHT22;1912;51.358;12.282;2024-02-16T18:12:12;13.70;1.00
3794;DHT22;1912;51.358;12.282;2024-02-16T18:14:43;13.60;1.00
3794;DHT22;1912;51.358;12.282;2024-02-16T18:17:09;13.60;1.00
3794;DHT22;1912;51.358;12.282;2024-02-16T18:19:41;13.60;1.00
3794;DHT22;1912;51.358;12.282;2024-02-16T18:22:08;13.50;1.00
3794;DHT22;1912;51.358;12.282;2024-02-16T18:24:34;13.40;1.00
3794;DHT22;1912;51.358;12.282;2024-02-16T18:27:01;13.40;1.00
3794;DHT22;1912;51.358;12.282;2024-02-16T18:29:29;13.40;1.00
3794;DHT22;1912;51.358;12.282;2024-02-16T18:31:55;13.40;1.00
3794;DHT22;1912;51.358;12.282;2024-02-16T18:34:22;13.40;1.00
3794;DHT22;1912;51.358;12.282;2024-02-16T18:36:48;13.30;1.00
3794;DHT22;1912;51.358;12.282;2024-02-16T18:39:20;13.30;1.00
3794;DHT22;1912;51.358;12.282;2024-02-16T18:41:46;13.20;1.00
3794;DHT22;1912;51.358;12.282;2024-02-16T18:44:12;13.20;1.00
3794;DHT22;1912;51.358;12.282;2024-02-16T18:46:39;13.30;1.00
3794;DHT22;1912;51.358;12.282;2024-02-16T18:49:06;13.30;1.00
3794;DHT22;1912;51.358;12.282;2024-02-16T18:51:32;13.20;1.00
3794;DHT22;1912;51.358;12.282;2024-02-16T18:53:58;13.20;1.00
3794;DHT22;1912;51.358;12.282;2024-02-16T18:56:23;13.10;1.00
3794;DHT22;1912;51.358;12.282;2024-02-16T18:58:49;13.00;1.00
3794;DHT22;1912;51.358;12.282;2024-02-16T19:01:15;12.90;1.00
3794;DHT22;1912;51.358;12.282;2024-02-16T19:03:41;12.90;1.00
3794;DHT22;1912;51.358;12.282;2024-02-16T19:06:07;12.80;1.00
3794;DHT22;1912;51.358;12.282;2024-02-16T19:08:35;12.80;1.00
3794;DHT22;1912;51.358;12.282;2024-02-16T19:11:02;12.80;1.00
3794;DHT22;1912;51.358;12.282;2024-02-16T19:13:30;12.80;1.00
3794;DHT22;1912;51.358;12.282;2024-02-16T19:15:57;12.70;1.00
3794;DHT22;1912;51.358;12.282;2024-02-16T19:18:25;12.70;1.00
3794;DHT22;1912;51.358;12.282;2024-02-16T19:20:51;12.70;1.00
3794;DHT22;1912;51.358;12.282;2024-02-16T19:23:19;12.80;1.00
3794;DHT22;1912;51.358;12.282;2024-02-16T19:25:45;12.70;1.00
3794;DHT22;1912;51.358;12.282;2024-02-16T19:28:11;12.70;1.00
3794;DHT22;1912;51.358;12.282;2024-02-16T19:30:36;12.70;1.00
3794;DHT22;1912;51.358;12.282;2024-02-16T19:33:02;12.70;1.00
3794;DHT22;1912;51.358;12.282;2024-02-16T19:35:28;12.70;1.00
3794;DHT22;1912;51.358;12.282;2024-02-16T19:37:53;12.70;1.00
3794;DHT22;1912;51.358;12.282;2024-02-16T19:40:19;12.80;1.00
3794;DHT22;1912;51.358;12.282;2024-02-16T19:42:45;12.80;1.00
3794;DHT22;1912;51.358;12.282;2024-02-16T19:45:10;12.80;1.00
3794;DHT22;1912;51.358;12.282;2024-02-16T19:47:37;12.80;1.00
3794;DHT22;1912;51.358;12.282;2024-02-16T19:50:04;12.80;1.00
3794;DHT22;1912;51.358;12.282;2024-02-16T19:52:30;12.70;1.00
3794;DHT22;1912;51.358;12.282;2024-02-16T19:54:56;12.70;1.00
3794;DHT22;1912;51.358;12.282;2024-02-16T19:57:24;12.70;1.00
3794;DHT22;1912;51.358;12.282;2024-02-16T19:59:50;12.70;1.00
3794;DHT22;1912;51.358;12.282;2024-02-16T20:02:15;12.70;1.00
3794;DHT22;1912;51.358;12.282;2024-02-16T20:04:41;12.70;1.00
3794;DHT22;1912;51.358;12.282;2024-02-16T20:07:06;12.70;1.00
3794;DHT22;1912;51.358;12.282;2024-02-16T20:09:32;12.70;1.00
3794;DHT22;1912;51.358;12.282;2024-02-16T20:11:58;12.70;1.00
3794;DHT22;1912;51.358;12.282;2024-02-16T20:14:25;12.70;1.00
3794;DHT22;1912;51.358;12.282;2024-02-16T20:16:50;12.60;1.00
3794;DHT22;1912;51.358;12.282;2024-02-16T20:19:16;12.70;1.00
3794;DHT22;1912;51.358;12.282;2024-02-16T20:21:42;12.60;1.00
3794;DHT22;1912;51.358;12.282;2024-02-16T20:24:07;12.60;1.00
3794;DHT22;1912;51.358;12.282;2024-02-16T20:26:33;12.60;1.00
3794;DHT22;1912;51.358;12.282;2024-02-16T20:28:59;12.50;1.00
3794;DHT22;1912;51.358;12.282;2024-02-16T20:31:28;12.50;1.00
3794;DHT22;1912;51.358;12.282;2024-02-16T20:33:54;12.50;1.00
3794;DHT22;1912;51.358;12.282;2024-02-16T20:36:20;12.50;1.00
3794;DHT22;1912;51.358;12.282;2024-02-16T20:38:46;12.50;1.00
3794;DHT22;1912;51.358;12.282;2024-02-16T20:41:12;12.50;1.00
3794;DHT22;1912;51.358;12.282;2024-02-16T20:43:38;12.50;1.00
3794;DHT22;1912;51.358;12.282;2024-02-16T20:46:04;12.40;1.00
3794;DHT22;1912;51.358;12.282;2024-02-16T20:48:31;12.40;1.00
3794;DHT22;1912;51.358;12.282;2024-02-16T20:50:57;12.40;1.00